createdAt,value
2019-05-19T00:02:22.137Z,81.62
2019-05-19T00:04:50.532Z,81.44
2019-05-19T00:07:18.926Z,81.03
2019-05-19T00:09:47.388Z,80.83
2019-05-19T00:12:15.756Z,80.92
2019-05-19T00:14:44.150Z,81.03
2019-05-19T00:17:12.727Z,81.85
2019-05-19T00:19:41.106Z,82.01
2019-05-19T00:22:09.497Z,81.76
2019-05-19T00:24:38.189Z,81.77
2019-05-19T00:27:06.584Z,82.16
2019-05-19T00:29:35.277Z,82.34
2019-05-19T00:32:03.700Z,82.90
2019-05-19T00:34:32.102Z,82.14
2019-05-19T00:37:00.499Z,81.88
2019-05-19T00:39:28.939Z,82.20
2019-05-19T00:41:57.312Z,82.17
2019-05-19T00:44:25.708Z,82.71
2019-05-19T00:46:54.131Z,82.53
2019-05-19T00:49:22.847Z,82.51
2019-05-19T00:51:51.245Z,83.13
2019-05-19T00:54:20.058Z,83.26
2019-05-19T00:56:49.899Z,83.26
2019-05-19T00:59:19.335Z,84.03
2019-05-19T01:01:47.756Z,84.14
2019-05-19T01:04:16.150Z,84.10
2019-05-19T01:06:44.912Z,84.12
2019-05-19T01:09:13.335Z,84.57
2019-05-19T01:11:41.724Z,84.74
2019-05-19T01:14:10.122Z,85.22
2019-05-19T01:16:38.537Z,85.07
2019-05-19T01:19:06.934Z,84.67
2019-05-19T01:21:35.663Z,84.58
2019-05-19T01:24:04.352Z,85.10
2019-05-19T01:26:32.756Z,85.20
2019-05-19T01:29:01.148Z,85.20
2019-05-19T01:31:29.615Z,85.12
2019-05-19T01:33:57.988Z,85.16
2019-05-19T01:36:26.700Z,86.48
2019-05-19T01:38:55.373Z,85.89
2019-05-19T01:41:23.768Z,85.32
2019-05-19T01:43:52.147Z,84.73
2019-05-19T01:46:20.557Z,84.23
2019-05-19T01:48:48.952Z,84.23
2019-05-19T01:51:17.350Z,84.67
2019-05-19T01:53:45.843Z,85.19
2019-05-19T01:56:14.233Z,85.09
2019-05-19T01:58:42.628Z,85.48
2019-05-19T02:01:11.092Z,85.97
2019-05-19T02:03:39.435Z,86.19
2019-05-19T02:06:07.831Z,86.24
2019-05-19T02:08:36.465Z,86.21
2019-05-19T02:11:04.855Z,86.35
2019-05-19T02:13:33.245Z,86.35
2019-05-19T02:16:01.671Z,87.22
2019-05-19T02:18:30.056Z,87.74
2019-05-19T02:20:58.448Z,87.66
2019-05-19T02:23:26.941Z,86.62
2019-05-19T02:25:55.332Z,86.10
2019-05-19T02:28:23.770Z,85.86
2019-05-19T02:30:52.187Z,85.79
2019-05-19T02:33:20.580Z,85.88
2019-05-19T02:35:48.967Z,86.18
2019-05-19T02:38:17.384Z,86.27
2019-05-19T02:40:48.837Z,86.51
2019-05-19T02:43:18.644Z,86.45
2019-05-19T02:45:49.434Z,86.94
2019-05-19T02:48:19.563Z,87.24
2019-05-19T02:50:52.706Z,87.44
2019-05-19T02:53:20.204Z,87.18
2019-05-19T02:55:49.531Z,87.11
2019-05-19T02:58:18.575Z,87.08
2019-05-19T03:00:46.994Z,87.26
2019-05-19T03:03:15.375Z,87.45
2019-05-19T03:05:44.075Z,87.63
2019-05-19T03:08:12.490Z,88.06
2019-05-19T03:10:40.894Z,88.05
2019-05-19T03:13:09.280Z,87.79
2019-05-19T03:15:38.122Z,87.23
2019-05-19T03:18:06.492Z,87.08
2019-05-19T03:20:34.901Z,86.84
2019-05-19T03:23:03.310Z,86.22
2019-05-19T03:25:31.698Z,86.12
2019-05-19T03:28:00.084Z,86.28
2019-05-19T03:30:46.319Z,86.38
2019-05-19T03:33:28.604Z,86.20
2019-05-19T03:35:57.037Z,86.05
2019-05-19T03:38:25.427Z,86.64
2019-05-19T03:40:53.825Z,87.18
2019-05-19T03:43:22.234Z,87.39
2019-05-19T03:45:50.633Z,87.60
2019-05-19T03:48:19.019Z,87.73
2019-05-19T03:50:47.504Z,87.84
2019-05-19T03:53:15.882Z,87.99
2019-05-19T03:55:44.271Z,87.88
2019-05-19T03:58:12.683Z,87.78
2019-05-19T04:00:41.146Z,87.94
2019-05-19T04:03:09.527Z,87.99
2019-05-19T04:05:38.011Z,87.67
2019-05-19T04:08:06.414Z,88.00
2019-05-19T04:10:34.800Z,87.58
2019-05-19T04:13:03.253Z,87.23
2019-05-19T04:15:31.664Z,86.84
2019-05-19T04:18:00.028Z,87.73
2019-05-19T04:20:28.457Z,86.95
2019-05-19T04:22:56.852Z,86.19
2019-05-19T04:25:25.264Z,85.95
2019-05-19T04:27:53.749Z,85.81
2019-05-19T04:30:22.283Z,86.19
2019-05-19T04:32:50.677Z,86.64
2019-05-19T04:35:19.096Z,86.92
2019-05-19T04:37:47.486Z,86.89
2019-05-19T04:40:16.338Z,86.82
2019-05-19T04:42:44.752Z,86.87
2019-05-19T04:45:13.619Z,87.05
2019-05-19T04:47:41.993Z,86.80
2019-05-19T04:50:10.891Z,86.70
2019-05-19T04:52:39.283Z,86.68
2019-05-19T04:55:08.016Z,86.95
2019-05-19T04:57:36.985Z,87.32
2019-05-19T05:00:07.114Z,87.24
2019-05-19T05:02:35.510Z,87.06
2019-05-19T05:05:04.572Z,86.21
2019-05-19T05:07:32.963Z,84.86
2019-05-19T05:10:01.359Z,84.66
2019-05-19T05:12:29.773Z,84.34
2019-05-19T05:14:58.145Z,84.21
2019-05-19T05:17:26.537Z,83.80
2019-05-19T05:19:55.023Z,83.78
2019-05-19T05:22:23.439Z,83.75
2019-05-19T05:24:51.823Z,83.92
2019-05-19T05:27:20.323Z,83.32
2019-05-19T05:29:48.755Z,83.56
2019-05-19T05:32:17.110Z,82.53
2019-05-19T05:34:45.545Z,81.87
2019-05-19T05:37:13.935Z,82.30
2019-05-19T05:39:42.327Z,81.99
2019-05-19T05:42:10.812Z,81.89
2019-05-19T05:44:39.203Z,82.57
2019-05-19T05:47:07.599Z,82.16
2019-05-19T05:49:36.029Z,82.41
2019-05-19T05:52:04.413Z,82.51
2019-05-19T05:54:32.807Z,82.18
2019-05-19T05:57:01.217Z,82.05
2019-05-19T05:59:29.608Z,81.91
2019-05-19T06:01:58.003Z,82.65
2019-05-19T06:04:26.493Z,82.88
2019-05-19T06:06:54.888Z,83.27
2019-05-19T06:09:23.272Z,83.89
2019-05-19T06:11:51.681Z,84.16
2019-05-19T06:14:20.111Z,84.04
2019-05-19T06:16:48.499Z,84.05
2019-05-19T06:19:16.917Z,84.50
2019-05-19T06:21:45.313Z,84.69
2019-05-19T06:24:13.702Z,85.00
2019-05-19T06:26:42.534Z,84.97
2019-05-19T06:29:10.926Z,85.19
2019-05-19T06:31:39.332Z,85.14
2019-05-19T06:34:09.991Z,85.18
2019-05-19T06:36:38.356Z,85.53
2019-05-19T06:39:06.908Z,85.62
2019-05-19T06:41:35.588Z,85.05
2019-05-19T06:44:04.324Z,84.97
2019-05-19T06:46:32.713Z,84.45
2019-05-19T06:49:01.131Z,84.30
2019-05-19T06:51:29.516Z,84.24
2019-05-19T06:53:58.179Z,84.56
2019-05-19T06:56:27.076Z,83.79
2019-05-19T06:58:55.473Z,82.63
2019-05-19T07:01:23.868Z,81.87
2019-05-19T07:03:52.299Z,83.60
2019-05-19T07:06:20.695Z,83.88
2019-05-19T07:08:49.086Z,83.26
2019-05-19T07:11:17.516Z,82.83
2019-05-19T07:13:45.911Z,81.81
2019-05-19T07:16:14.322Z,82.00
2019-05-19T07:18:43.529Z,81.38
2019-05-19T07:21:11.922Z,81.04
2019-05-19T07:23:40.316Z,81.34
2019-05-19T07:26:08.747Z,81.38
2019-05-19T07:28:37.139Z,82.05
2019-05-19T07:31:05.923Z,80.70
2019-05-19T07:33:34.344Z,79.89
2019-05-19T07:36:03.072Z,79.29
2019-05-19T07:38:31.474Z,78.44
2019-05-19T07:40:59.909Z,79.03
2019-05-19T07:43:28.308Z,78.73
2019-05-19T07:45:56.986Z,78.28
2019-05-19T07:48:25.774Z,77.39
2019-05-19T07:50:54.184Z,76.63
2019-05-19T07:53:22.655Z,74.86
2019-05-19T07:55:51.084Z,75.16
2019-05-19T07:58:19.493Z,74.03
2019-05-19T08:00:47.895Z,73.36
2019-05-19T08:03:16.398Z,73.36
2019-05-19T08:05:44.811Z,74.42
2019-05-19T08:08:13.211Z,74.57
2019-05-19T08:10:41.736Z,74.07
2019-05-19T08:13:10.376Z,74.51
2019-05-19T08:15:38.782Z,74.60
2019-05-19T08:18:07.535Z,74.01
2019-05-19T08:20:35.940Z,73.08
2019-05-19T08:23:04.353Z,72.63
2019-05-19T08:25:32.790Z,72.93
2019-05-19T08:28:08.388Z,73.55
2019-05-19T08:30:31.385Z,72.74
2019-05-19T08:32:59.807Z,70.52
2019-05-19T08:35:28.204Z,72.53
2019-05-19T08:37:56.608Z,73.46
2019-05-19T08:40:25.009Z,68.52
2019-05-19T08:42:53.685Z,68.31
2019-05-19T08:45:22.153Z,68.33
2019-05-19T08:47:50.662Z,68.50
2019-05-19T08:50:19.187Z,67.97
2019-05-19T08:52:47.588Z,68.55
2019-05-19T08:55:16.178Z,67.95
2019-05-19T08:57:45.655Z,68.90
2019-05-19T09:00:14.386Z,65.83
2019-05-19T09:02:42.904Z,65.49
2019-05-19T09:05:11.313Z,63.42
2019-05-19T09:07:39.708Z,65.13
2019-05-19T09:10:09.166Z,64.14
2019-05-19T09:12:38.398Z,64.68
2019-05-19T09:15:07.642Z,64.73
2019-05-19T09:17:36.068Z,63.73
2019-05-19T09:20:05.617Z,64.77
2019-05-19T09:22:34.289Z,64.90
2019-05-19T09:25:02.748Z,62.90
2019-05-19T09:27:31.155Z,61.77
2019-05-19T09:29:59.552Z,63.70
2019-05-19T09:32:28.046Z,62.69
2019-05-19T09:34:56.441Z,61.05
2019-05-19T09:37:25.164Z,59.98
2019-05-19T09:39:53.657Z,60.02
2019-05-19T09:42:22.065Z,61.28
2019-05-19T09:44:50.588Z,60.71
2019-05-19T09:47:19.050Z,62.57
2019-05-19T09:49:47.449Z,64.01
2019-05-19T09:52:17.186Z,63.17
2019-05-19T09:54:46.106Z,62.43
2019-05-19T09:57:14.736Z,60.83
2019-05-19T09:59:43.130Z,61.19
2019-05-19T10:02:11.553Z,60.99
2019-05-19T10:04:39.956Z,62.67
2019-05-19T10:07:08.746Z,61.65
2019-05-19T10:09:41.028Z,61.75
2019-05-19T10:12:09.795Z,62.44
2019-05-19T10:14:38.207Z,59.54
2019-05-19T10:17:06.652Z,61.57
2019-05-19T10:19:35.126Z,60.00
2019-05-19T10:22:03.527Z,59.46
2019-05-19T10:24:32.114Z,58.78
2019-05-19T10:27:00.521Z,60.46
2019-05-19T10:29:28.972Z,60.27
2019-05-19T10:31:57.368Z,60.89
2019-05-19T10:34:25.771Z,60.23
2019-05-19T10:36:54.173Z,60.13
2019-05-19T10:39:22.588Z,58.21
2019-05-19T10:41:50.984Z,60.25
2019-05-19T10:44:19.382Z,56.65
2019-05-19T10:46:47.877Z,57.35
2019-05-19T10:49:16.271Z,58.89
2019-05-19T10:51:44.670Z,58.86
2019-05-19T10:54:13.088Z,55.59
2019-05-19T10:56:41.481Z,58.03
2019-05-19T10:59:09.877Z,55.09
2019-05-19T11:01:38.446Z,57.12
2019-05-19T11:04:06.940Z,54.11
2019-05-19T11:06:35.328Z,49.01
2019-05-19T11:09:05.088Z,51.90
2019-05-19T11:11:33.485Z,53.36
2019-05-19T11:14:01.946Z,51.99
2019-05-19T11:16:30.356Z,53.98
2019-05-19T11:18:58.786Z,52.91
2019-05-19T11:21:27.143Z,52.86
2019-05-19T11:23:55.846Z,51.95
2019-05-19T11:26:24.241Z,51.63
2019-05-19T11:28:52.627Z,52.18
2019-05-19T11:31:21.062Z,52.15
2019-05-19T11:33:49.458Z,52.72
2019-05-19T11:36:17.848Z,54.31
2019-05-19T11:38:46.553Z,54.61
2019-05-19T11:41:14.943Z,54.84
2019-05-19T11:43:43.341Z,56.24
2019-05-19T11:46:11.884Z,54.92
2019-05-19T11:48:40.275Z,54.48
2019-05-19T11:51:08.672Z,56.09
2019-05-19T11:53:37.168Z,54.53
2019-05-19T11:56:07.247Z,55.45
2019-05-19T11:58:35.685Z,55.62
2019-05-19T12:01:04.147Z,55.85
2019-05-19T12:03:32.549Z,55.27
2019-05-19T12:06:00.936Z,54.71
2019-05-19T12:08:29.356Z,55.41
2019-05-19T12:10:57.749Z,54.90
2019-05-19T12:13:26.209Z,54.64
2019-05-19T12:15:54.900Z,55.92
2019-05-19T12:18:23.290Z,56.25
2019-05-19T12:20:51.696Z,55.54
2019-05-19T12:23:20.098Z,53.79
2019-05-19T12:25:48.487Z,54.67
2019-05-19T12:28:16.879Z,54.59
2019-05-19T12:30:45.304Z,53.97
2019-05-19T12:33:13.688Z,51.23
2019-05-19T12:35:42.075Z,52.31
2019-05-19T12:38:10.492Z,51.45
2019-05-19T12:40:38.881Z,52.46
2019-05-19T12:43:07.564Z,50.57
2019-05-19T12:45:36.054Z,52.91
2019-05-19T12:48:04.436Z,50.13
2019-05-19T12:50:32.948Z,51.06
2019-05-19T12:53:01.386Z,50.92
2019-05-19T12:55:29.831Z,53.38
2019-05-19T12:57:58.216Z,51.61
2019-05-19T13:00:26.701Z,50.11
2019-05-19T13:02:55.116Z,54.05
2019-05-19T13:05:23.482Z,52.03
2019-05-19T13:07:52.612Z,52.93
2019-05-19T13:10:21.358Z,54.25
2019-05-19T13:12:49.755Z,56.00
2019-05-19T13:15:18.440Z,53.29
2019-05-19T13:17:46.830Z,53.68
2019-05-19T13:20:15.386Z,57.96
2019-05-19T13:22:43.848Z,59.05
2019-05-19T13:25:12.374Z,58.04
2019-05-19T13:27:40.757Z,56.75
2019-05-19T13:30:09.374Z,57.07
2019-05-19T13:32:37.758Z,55.52
2019-05-19T13:35:08.021Z,54.21
2019-05-19T13:37:36.456Z,53.90
2019-05-19T13:40:06.087Z,52.81
2019-05-19T13:42:34.478Z,51.13
2019-05-19T13:45:02.957Z,52.09
2019-05-19T13:47:31.354Z,51.27
2019-05-19T13:49:59.791Z,52.20
2019-05-19T13:52:28.237Z,52.83
2019-05-19T13:54:56.634Z,51.75
2019-05-19T13:57:25.396Z,51.99
2019-05-19T13:59:53.793Z,53.27
2019-05-19T14:02:22.189Z,53.35
2019-05-19T14:04:50.919Z,52.86
2019-05-19T14:07:19.341Z,53.57
2019-05-19T14:12:15.048Z,52.48
2019-05-19T14:14:43.473Z,50.87
2019-05-19T14:17:11.864Z,48.00
2019-05-19T14:19:40.551Z,49.06
2019-05-19T14:22:08.969Z,47.85
2019-05-19T14:24:37.361Z,51.15
2019-05-19T14:27:05.822Z,51.60
2019-05-19T14:29:34.317Z,50.94
2019-05-19T14:32:02.907Z,48.43
2019-05-19T14:34:31.297Z,49.83
2019-05-19T14:36:59.775Z,50.22
2019-05-19T14:39:28.103Z,49.76
2019-05-19T14:41:58.198Z,46.84
2019-05-19T14:44:26.572Z,46.20
2019-05-19T14:46:54.963Z,46.00
2019-05-19T14:49:23.351Z,43.64
2019-05-19T14:51:51.847Z,44.10
2019-05-19T14:54:20.243Z,43.10
2019-05-19T14:56:48.636Z,43.00
2019-05-19T14:59:17.114Z,41.43
2019-05-19T15:01:45.511Z,39.13
2019-05-19T15:04:13.904Z,39.07
2019-05-19T15:06:42.323Z,40.11
2019-05-19T15:09:10.720Z,41.42
2019-05-19T15:11:39.617Z,43.59
2019-05-19T15:14:07.984Z,44.21
2019-05-19T15:16:36.379Z,45.14
2019-05-19T15:19:05.018Z,47.74
2019-05-19T15:21:33.441Z,46.36
2019-05-19T15:24:01.831Z,48.24
2019-05-19T15:26:30.222Z,48.63
2019-05-19T15:28:58.650Z,48.59
2019-05-19T15:31:27.040Z,46.69
2019-05-19T15:33:55.431Z,46.20
2019-05-19T15:36:23.861Z,46.00
2019-05-19T15:38:52.243Z,46.79
2019-05-19T15:41:20.635Z,44.68
2019-05-19T15:43:49.059Z,47.04
2019-05-19T15:46:18.254Z,48.97
2019-05-19T15:48:46.722Z,47.29
2019-05-19T15:51:27.533Z,46.74
2019-05-19T15:53:45.333Z,50.51
2019-05-19T15:56:13.722Z,51.35
2019-05-19T15:58:42.224Z,51.15
2019-05-19T16:01:10.619Z,50.50
2019-05-19T16:03:39.010Z,50.43
2019-05-19T16:06:07.508Z,51.32
2019-05-19T16:08:35.898Z,52.03
2019-05-19T16:11:04.297Z,52.50
2019-05-19T16:13:33.135Z,52.61
2019-05-19T16:16:01.537Z,52.99
2019-05-19T16:18:29.921Z,52.02
2019-05-19T16:20:58.425Z,52.74
2019-05-19T16:23:26.811Z,53.10
2019-05-19T16:25:55.204Z,53.37
2019-05-19T16:28:30.800Z,53.85
2019-05-19T16:30:54.037Z,53.08
2019-05-19T16:33:22.422Z,53.54
2019-05-19T16:35:50.838Z,53.34
2019-05-19T16:38:19.228Z,54.43
2019-05-19T16:40:47.619Z,54.84
2019-05-19T16:43:16.051Z,54.99
2019-05-19T16:45:44.707Z,55.57
2019-05-19T16:48:13.379Z,55.79
2019-05-19T16:50:41.858Z,56.12
2019-05-19T16:53:10.256Z,55.94
2019-05-19T16:55:38.647Z,56.47
2019-05-19T16:58:19.931Z,56.31
2019-05-19T17:00:37.299Z,56.21
2019-05-19T17:03:05.713Z,57.66
2019-05-19T17:05:34.289Z,57.69
2019-05-19T17:08:03.232Z,57.14
2019-05-19T17:10:31.615Z,56.92
2019-05-19T17:13:00.034Z,55.09
2019-05-19T17:15:28.424Z,54.25
2019-05-19T17:17:56.819Z,54.68
2019-05-19T17:20:25.378Z,54.13
2019-05-19T17:22:53.781Z,55.30
2019-05-19T17:25:22.167Z,55.37
2019-05-19T17:27:50.663Z,54.65
2019-05-19T17:30:20.865Z,54.74
2019-05-19T17:32:49.259Z,55.45
2019-05-19T17:35:17.998Z,56.39
2019-05-19T17:37:46.389Z,56.57
2019-05-19T17:40:15.821Z,57.02
2019-05-19T17:42:44.314Z,56.90
2019-05-19T17:45:13.134Z,56.45
2019-05-19T17:47:41.587Z,55.71
2019-05-19T17:50:10.605Z,55.23
2019-05-19T17:52:38.998Z,56.32
2019-05-19T17:55:08.827Z,57.31
2019-05-19T17:57:38.855Z,56.69
2019-05-19T18:00:10.132Z,57.12
2019-05-19T18:02:38.580Z,57.19
2019-05-19T18:05:07.459Z,57.64
2019-05-19T18:07:35.846Z,58.16
2019-05-19T18:10:06.799Z,58.47
2019-05-19T18:12:35.271Z,59.20
2019-05-19T18:15:05.159Z,58.54
2019-05-19T18:17:33.558Z,58.62
2019-05-19T18:20:01.979Z,59.11
2019-05-19T18:22:30.390Z,59.50
2019-05-19T18:24:58.765Z,59.57
2019-05-19T18:27:27.278Z,59.42
2019-05-19T18:29:55.931Z,60.69
2019-05-19T18:32:24.324Z,60.86
2019-05-19T18:34:52.885Z,62.56
2019-05-19T18:37:21.920Z,63.12
2019-05-19T18:39:50.662Z,63.22
2019-05-19T18:42:20.580Z,62.86
2019-05-19T18:44:49.125Z,62.54
2019-05-19T19:21:36.790Z,69.08
2019-05-19T19:24:05.182Z,69.44
2019-05-19T19:26:33.607Z,69.73
2019-05-19T19:29:02.010Z,70.50
2019-05-19T19:31:30.424Z,69.00
2019-05-19T19:33:58.828Z,69.19
2019-05-19T19:36:27.247Z,66.98
2019-05-19T19:38:55.644Z,67.26
2019-05-19T19:41:24.063Z,67.84
2019-05-19T19:43:52.461Z,68.00
2019-05-19T19:46:20.885Z,68.13
2019-05-19T19:48:49.290Z,69.14
2019-05-19T19:51:17.684Z,69.28
2019-05-19T19:53:46.100Z,69.78
2019-05-19T19:56:14.854Z,69.56
2019-05-19T19:58:43.260Z,69.87
2019-05-19T20:01:11.670Z,69.61
2019-05-19T20:03:40.760Z,69.47
2019-05-19T20:06:09.177Z,69.35
2019-05-19T20:08:37.612Z,69.34
2019-05-19T20:11:06.338Z,69.71
2019-05-19T20:13:35.132Z,70.32
2019-05-19T20:16:03.536Z,70.88
2019-05-19T20:18:31.944Z,71.27
2019-05-19T20:21:00.378Z,71.56
2019-05-19T20:23:28.782Z,71.79
2019-05-19T20:25:57.186Z,71.95
2019-05-19T20:28:25.686Z,72.11
2019-05-19T20:30:54.092Z,72.88
2019-05-19T20:33:22.511Z,73.46
2019-05-19T20:35:50.919Z,72.91
2019-05-19T20:38:19.348Z,71.96
2019-05-19T20:40:47.756Z,71.16
2019-05-19T20:43:16.175Z,70.36
2019-05-19T20:45:44.575Z,70.65
2019-05-19T20:48:12.990Z,71.59
2019-05-19T20:50:41.549Z,72.36
2019-05-19T20:53:10.242Z,72.87
2019-05-19T20:55:38.645Z,73.13
2019-05-19T20:58:07.070Z,73.67
2019-05-19T21:00:49.468Z,74.22
2019-05-19T21:03:05.620Z,74.28
2019-05-19T21:05:34.028Z,74.84
2019-05-19T21:08:02.457Z,74.19
2019-05-19T21:10:30.867Z,74.81
2019-05-19T21:12:59.531Z,74.80
2019-05-19T21:15:27.967Z,75.14
2019-05-19T21:17:56.365Z,74.29
2019-05-19T21:20:24.788Z,73.46
2019-05-19T21:22:53.195Z,73.23
2019-05-19T21:25:21.650Z,73.40
2019-05-19T21:27:50.048Z,74.53
2019-05-19T21:30:18.523Z,74.53
2019-05-19T21:32:46.931Z,74.52
2019-05-19T21:35:15.358Z,74.46
2019-05-19T21:37:43.765Z,74.51
2019-05-19T21:40:12.321Z,74.50
2019-05-19T21:42:40.737Z,74.42
2019-05-19T21:45:10.219Z,74.42
2019-05-19T21:47:38.693Z,74.46
2019-05-19T21:50:07.836Z,74.63
2019-05-19T21:52:36.256Z,74.49
2019-05-19T21:55:06.706Z,74.51
2019-05-19T21:57:35.116Z,74.58
2019-05-19T22:00:04.556Z,74.71
2019-05-19T22:02:32.957Z,75.08
2019-05-19T22:05:01.853Z,75.16
2019-05-19T22:07:44.782Z,75.08
2019-05-19T22:10:13.443Z,75.73
2019-05-19T22:12:41.856Z,75.91
2019-05-19T22:15:11.707Z,75.37
2019-05-19T22:17:40.104Z,74.54
2019-05-19T22:20:08.609Z,74.54
2019-05-19T22:22:37.015Z,74.72
2019-05-19T22:25:07.374Z,74.54
2019-05-19T22:27:35.780Z,74.55
2019-05-19T22:30:07.286Z,74.55
2019-05-19T22:32:35.688Z,74.82
2019-05-19T22:35:05.392Z,74.71
2019-05-19T22:37:33.794Z,74.68
2019-05-19T22:40:02.589Z,74.63
2019-05-19T22:42:31.204Z,74.69
2019-05-19T22:44:59.613Z,75.04
2019-05-19T22:47:28.386Z,75.66
2019-05-19T22:49:56.798Z,74.96
2019-05-19T22:52:25.218Z,75.12
2019-05-19T22:54:53.622Z,75.49
2019-05-19T22:57:22.300Z,74.82
2019-05-19T22:59:50.726Z,74.93
2019-05-19T23:02:19.413Z,75.22
2019-05-19T23:04:47.824Z,75.01
2019-05-19T23:07:16.240Z,74.46
2019-05-19T23:09:44.644Z,74.05
2019-05-19T23:12:13.377Z,74.14
2019-05-19T23:14:41.787Z,75.12
2019-05-19T23:17:10.207Z,75.07
2019-05-19T23:19:38.620Z,74.89
2019-05-19T23:22:07.085Z,74.84
2019-05-19T23:24:35.504Z,75.29
2019-05-19T23:27:04.262Z,75.67
2019-05-19T23:29:32.670Z,75.97
2019-05-19T23:32:07.046Z,75.96
2019-05-19T23:34:31.221Z,75.96
2019-05-19T23:36:59.921Z,75.96
2019-05-19T23:39:28.332Z,76.18
2019-05-19T23:41:56.746Z,76.24
2019-05-19T23:44:25.221Z,76.77
2019-05-19T23:46:53.898Z,76.79
2019-05-19T23:49:22.300Z,76.78
2019-05-19T23:51:50.725Z,76.94
2019-05-19T23:54:19.149Z,77.06
2019-05-19T23:56:47.576Z,77.55
2019-05-19T23:59:16.957Z,77.22
